Time;durP1;ratioP1;P1;durP2;ratioP2;P2;SDS_P1;SDS_P2;PMS_P1;PMS_P2;Temp;Humidity;BMP_temperature;BMP_pressure;BME280_temperature;BME280_humidity;BME280_pressure;Samples;Min_cycle;Max_cycle;Signal;HPM_P1;HPM_P2
2022/01/10 00:06:17;;;;;;;;;;;;;;;;;;;;;
2022/01/10 00:14:19;;;;;;;113.00;73.80;;;;;;;-1.76;70.74;99771.96;108793;1282;22093;-85
2022/01/10 00:18:11;;;;;;;;;;;;;;;;;;;;;
2022/01/10 00:23:29;;;;;;;;;;;;;;;;;;;;;
2022/01/10 00:26:35;;;;;;;110.70;72.40;;;;;;;-1.84;71.09;99789.73;107350;1299;23773;-84
2022/01/10 00:40:37;;;;;;;93.60;67.60;;;;;;;-0.37;67.57;99798.23;109498;1273;548215;-85
2022/01/10 00:48:47;;;;;;;;;;;;;;;;;;;;;
2022/01/10 01:12:20;;;;;;;101.00;66.60;;;;;;;-1.83;69.97;99861.83;113971;1235;23612;-86
2022/01/10 01:24:46;;;;;;;104.80;69.90;;;;;;;-2.08;70.54;99877.58;109565;1268;21996;-85
2022/01/10 01:28:48;;;;;;;;;;;;;;;;;;;;;
2022/01/10 01:32:25;;;;;;;112.70;73.00;;;;;;;-2.18;70.82;99885.48;109757;1267;21979;-84
2022/01/10 01:36:33;;;;;;;104.40;70.10;;;;;;;-2.24;70.82;99889.84;110253;1262;22048;-84
2022/01/10 01:39:23;;;;;;;106.30;72.10;;;;;;;-2.30;70.93;99895.23;109700;1265;21967;-82
2022/01/10 01:46:29;;;;;;;;;;;;;;;;;;;;;
2022/01/10 01:50:20;;;;;;;106.40;73.70;;;;;;;-2.40;71.28;99903.41;109511;1268;22376;-84
2022/01/10 01:53:49;;;;;;;112.30;72.80;;;;;;;-2.42;71.44;99912.16;108907;1270;22049;-84
2022/01/10 02:00:07;;;;;;;;;;;;;;;;;;;;;
2022/01/10 02:07:49;;;;;;;;;;;;;;;;;;;;;
2022/01/10 02:12:08;;;;;;;109.40;77.60;;;;;;;-2.35;71.76;99931.91;108154;1286;549943;-85
2022/01/10 02:16:32;;;;;;;;;;;;;;;;;;;;;
2022/01/10 02:21:10;;;;;;;;;;;;;;;;;;;;;
2022/01/10 02:29:38;;;;;;;;;;;;;;;;;;;;;
2022/01/10 02:33:07;;;;;;;;;;;;;;;;;;;;;
2022/01/10 02:36:56;;;;;;;;;;;;;;;;;;;;;
2022/01/10 02:51:07;;;;;;;85.00;64.30;;;;;;;-1.12;68.35;99990.55;107448;1292;548142;-83
2022/01/10 02:59:18;;;;;;;;;;;;;;;;;;;;;
2022/01/10 03:03:31;;;;;;;94.60;64.60;;;;;;;-2.13;68.82;100012.46;109138;1276;21973;-84
2022/01/10 03:07:28;;;;;;;;;;;;;;;;;;;;;
2022/01/10 03:11:23;;;;;;;;;;;;;;;;;;;;;
2022/01/10 03:18:22;;;;;;;;;;;;;;;;;;;;;
2022/01/10 03:22:02;;;;;;;;;;;;;;;;;;;;;
2022/01/10 03:26:27;;;;;;;103.10;71.70;;;;;;;-2.65;70.92;100047.73;108734;1282;22092;-85
2022/01/10 03:30:26;;;;;;;105.10;69.60;;;;;;;-2.66;71.07;100057.41;108605;1287;22609;-85
2022/01/10 03:34:16;;;;;;;;;;;;;;;;;;;;;
2022/01/10 03:42:02;;;;;;;;;;;;;;;;;;;;;
2022/01/10 03:49:15;;;;;;;;;;;;;;;;;;;;;
2022/01/10 03:57:13;;;;;;;;;;;;;;;;;;;;;
2022/01/10 04:04:52;;;;;;;104.90;69.50;;;;;;;-2.75;71.72;100112.25;108961;1258;23601;-86
2022/01/10 04:09:32;;;;;;;;;;;;;;;;;;;;;
2022/01/10 04:13:39;;;;;;;;;;;;;;;;;;;;;
2022/01/10 04:17:34;;;;;;;94.00;64.00;;;;;;;-2.77;71.69;100134.11;107225;1299;23107;-84
2022/01/10 04:21:21;;;;;;;98.60;66.60;;;;;;;-2.79;71.85;100145.09;106818;1302;22471;-85
2022/01/10 04:25:11;;;;;;;;;;;;;;;;;;;;;
2022/01/10 04:29:49;;;;;;;87.20;66.40;;;;;;;-2.61;71.79;100157.00;108378;1292;548327;-88
2022/01/10 04:33:16;;;;;;;;;;;;;;;;;;;;;
2022/01/10 04:37:34;;;;;;;92.20;64.40;;;;;;;-2.83;71.60;100164.06;109646;1272;22783;-85
2022/01/10 04:40:53;;;;;;;92.20;64.40;;;;;;;-2.88;71.79;100163.67;104979;1279;5373020;-85
2022/01/10 04:47:48;;;;;;;;;;;;;;;;;;;;;
2022/01/10 04:51:34;;;;;;;;;;;;;;;;;;;;;
2022/01/10 04:54:59;;;;;;;;;;;;;;;;;;;;;
2022/01/10 04:58:42;;;;;;;;;;;;;;;;;;;;;
2022/01/10 05:01:32;;;;;;;82.70;58.40;;;;;;;-2.69;70.84;100208.42;107685;1293;22011;-84
2022/01/10 05:04:33;;;;;;;;;;;;;;;;;;;;;
2022/01/10 05:07:27;;;;;;;;;;;;;;;;;;;;;
2022/01/10 05:10:19;;;;;;;95.90;64.80;;;;;;;-2.80;71.24;100220.26;108179;1286;23638;-85
2022/01/10 05:15:00;;;;;;;92.70;60.50;;;;;;;-2.86;71.23;100222.80;108465;1280;21992;-84
2022/01/10 05:19:01;;;;;;;79.70;57.80;;;;;;;-2.91;71.54;100230.85;109172;1272;22020;-85
2022/01/10 05:23:58;;;;;;;;;;;;;;;;;;;;;
2022/01/10 05:27:24;;;;;;;80.80;55.90;;;;;;;-2.96;71.53;100247.70;108910;1276;22019;-89
2022/01/10 05:40:15;;;;;;;;;;;;;;;;;;;;;
2022/01/10 05:44:44;;;;;;;;;;;;;;;;;;;;;
2022/01/10 05:47:38;;;;;;;;;;;;;;;;;;;;;
2022/01/10 06:05:10;;;;;;;;;;;;;;;;;;;;;
2022/01/10 06:12:09;;;;;;;108.30;74.70;;;;;;;-3.06;72.03;100344.89;109580;1260;22034;-87
2022/01/10 06:16:16;;;;;;;;;;;;;;;;;;;;;
2022/01/10 06:24:30;;;;;;;;;;;;;;;;;;;;;
2022/01/10 06:28:49;;;;;;;;;;;;;;;;;;;;;
2022/01/10 06:31:46;;;;;;;;;;;;;;;;;;;;;
2022/01/10 06:35:23;;;;;;;;;;;;;;;;;;;;;
2022/01/10 06:39:11;;;;;;;;;;;;;;;;;;;;;
2022/01/10 06:43:07;;;;;;;;;;;;;;;;;;;;;
2022/01/10 06:51:01;;;;;;;116.20;82.80;;;;;;;-3.19;72.18;100442.90;107783;1289;558221;-83
2022/01/10 06:54:34;;;;;;;129.00;87.30;;;;;;;-3.23;71.90;100451.23;110451;1263;22100;-84
2022/01/10 06:58:06;;;;;;;141.90;92.70;;;;;;;-3.32;71.95;100461.66;110089;1262;23575;-84
2022/01/10 07:02:09;;;;;;;120.90;81.60;;;;;;;-3.41;72.09;100471.04;109884;1263;21993;-81
2022/01/10 07:05:26;;;;;;;126.30;84.90;;;;;;;-3.50;72.19;100485.45;105315;1265;22143;-82
2022/01/10 07:13:02;;;;;;;113.80;79.50;;;;;;;-3.49;72.54;100496.27;108869;1279;23786;-83
2022/01/10 07:16:26;;;;;;;123.50;86.30;;;;;;;-3.46;72.59;100502.32;108488;1280;21995;-84
2022/01/10 07:20:21;;;;;;;;;;;;;;;;;;;;;
2022/01/10 07:23:58;;;;;;;118.70;81.20;;;;;;;-3.28;72.58;100518.80;111002;1257;22391;-83
2022/01/10 07:28:15;;;;;;;;;;;;;;;;;;;;;
2022/01/10 07:31:33;;;;;;;115.60;76.40;;;;;;;-3.25;72.66;100542.27;110586;1257;23599;-80
2022/01/10 07:35:21;;;;;;;128.10;78.80;;;;;;;-3.25;72.59;100547.44;109905;1262;22057;-81
2022/01/10 07:39:17;;;;;;;133.20;83.40;;;;;;;-3.23;72.74;100544.92;109571;1267;24964;-83
2022/01/10 07:44:01;;;;;;;;;;;;;;;;;;;;;
2022/01/10 07:47:00;;;;;;;;;;;;;;;-3.16;72.76;100559.52;108500;1283;23067;-83
2022/01/10 08:01:00;;;;;;;;;;;;;;;;;;;;;
2022/01/10 08:05:07;;;;;;;148.70;86.00;;;;;;;-1.33;66.64;100598.91;109240;1262;23688;-85
2022/01/10 08:13:00;;;;;;;;;;;;;;;;;;;;;
2022/01/10 08:16:26;;;;;;;;;;;;;;;;;;;;;
2022/01/10 08:20:03;;;;;;;118.30;85.30;;;;;;;-1.99;69.24;100614.44;107978;1286;544882;-82
2022/01/10 08:24:13;;;;;;;;;;;;;;;;;;;;;
2022/01/10 08:32:16;;;;;;;;;;;;;;;;;;;;;
2022/01/10 08:36:28;;;;;;;127.80;82.90;;;;;;;-2.42;70.05;100654.45;106830;1267;21982;-82
2022/01/10 08:44:20;;;;;;;;;;;;;;;;;;;;;
2022/01/10 08:48:24;;;;;;;160.90;99.00;;;;;;;-2.13;70.63;100686.63;108800;1277;22057;-83
2022/01/10 08:51:57;;;;;;;;;;;;;;;;;;;;;
2022/01/10 08:54:52;;;;;;;123.30;83.40;;;;;;;-2.07;70.33;100696.02;107684;1292;22052;-83
2022/01/10 08:58:08;;;;;;;;;;;;;;;;;;;;;
2022/01/10 09:01:31;;;;;;;;;;;;;;;;;;;;;
2022/01/10 09:04:39;;;;;;;;;;;;;;;;;;;;;
2022/01/10 09:07:13;;;;;;;107.70;75.40;;;;;;;-2.01;70.30;100720.91;107844;1282;22790;-79
2022/01/10 09:09:50;;;;;;;;;;;;;;;;;;;;;
2022/01/10 09:12:48;;;;;;;103.90;73.00;;;;;;;-1.99;70.13;100735.98;109599;1271;23647;-80
2022/01/10 09:15:23;;;;;;;115.70;78.60;;;;;;;-2.03;69.92;100742.54;108847;1273;22065;-79
2022/01/10 09:18:25;;;;;;;119.00;81.20;;;;;;;-2.05;69.99;100748.54;109003;1271;22461;-81
2022/01/10 09:21:23;;;;;;;119.80;82.00;;;;;;;-2.07;70.11;100747.25;109534;1263;22110;-79
2022/01/10 09:24:14;;;;;;;112.80;76.20;;;;;;;-2.05;70.23;100747.47;108891;1271;22942;-80
2022/01/10 09:26:53;;;;;;;104.80;74.70;;;;;;;-2.00;70.31;100756.39;108687;1267;21978;-80
2022/01/10 09:29:30;;;;;;;103.60;73.20;;;;;;;-1.96;70.43;100764.45;109182;1269;23612;-83
2022/01/10 09:38:55;;;;;;;102.20;73.10;;;;;;;-1.93;70.43;100783.13;108267;1285;22074;-80
2022/01/10 09:41:58;;;;;;;116.30;77.70;;;;;;;-1.89;70.52;100801.22;108119;1282;22519;-80
2022/01/10 09:44:34;;;;;;;102.10;73.20;;;;;;;-1.87;70.41;100812.36;108025;1282;22022;-80
2022/01/10 09:47:02;;;;;;;104.40;74.30;;;;;;;-1.84;70.39;100819.95;108404;1282;22175;-81
2022/01/10 09:49:36;;;;;;;97.60;70.30;;;;;;;-1.85;70.23;100811.73;108081;1282;22003;-81
2022/01/10 09:52:05;;;;;;;104.00;76.90;;;;;;;-1.82;70.45;100807.61;108532;1276;23793;-80
2022/01/10 09:54:34;;;;;;;104.90;73.50;;;;;;;-1.77;70.36;100810.64;108738;1273;22075;-80
2022/01/10 09:57:04;;;;;;;101.80;75.30;;;;;;;-1.75;70.23;100811.39;108608;1273;22933;-81
2022/01/10 09:59:34;;;;;;;108.70;78.20;;;;;;;-1.73;70.25;100815.08;108790;1274;21984;-79
2022/01/10 10:02:05;;;;;;;113.40;83.50;;;;;;;-1.72;70.26;100822.96;108567;1273;21996;-79
2022/01/10 10:04:38;;;;;;;134.60;88.60;;;;;;;-1.71;70.27;100831.21;108803;1273;23626;-79
2022/01/10 10:07:08;;;;;;;104.40;74.20;;;;;;;-1.69;70.27;100837.69;108809;1273;23701;-80
2022/01/10 10:09:40;;;;;;;107.70;76.10;;;;;;;-1.65;70.26;100840.73;108799;1276;23027;-80
2022/01/10 10:12:11;;;;;;;99.90;73.50;;;;;;;-1.58;70.40;100845.25;109085;1261;21987;-80
2022/01/10 10:14:44;;;;;;;91.60;71.40;;;;;;;-1.52;70.24;100851.00;109664;1260;23058;-80
2022/01/10 10:17:21;;;;;;;96.20;72.50;;;;;;;-1.52;69.98;100861.02;109393;1266;22005;-80
2022/01/10 10:19:50;;;;;;;96.80;70.90;;;;;;;-1.52;70.05;100864.45;109402;1267;22014;-80
2022/01/10 10:22:22;;;;;;;107.80;79.60;;;;;;;-1.49;70.08;100866.40;109979;1261;22348;-80
2022/01/10 10:24:54;;;;;;;110.10;75.80;;;;;;;-1.44;70.12;100869.59;110064;1260;21988;-80
2022/01/10 10:27:26;;;;;;;101.20;76.30;;;;;;;-1.36;70.39;100870.18;109984;1260;21992;-79
2022/01/10 10:30:29;;;;;;;99.70;78.80;;;;;;;-1.24;70.29;100884.63;110063;1261;23085;-80
2022/01/10 10:33:23;;;;;;;102.40;74.80;;;;;;;-1.23;69.87;100889.56;109972;1256;22005;-82
2022/01/10 10:36:07;;;;;;;103.80;79.00;;;;;;;-1.23;69.68;100893.23;110727;1249;21986;-81
2022/01/10 10:38:38;;;;;;;101.40;76.20;;;;;;;-1.26;69.40;100896.30;111256;1249;21998;-80
2022/01/10 10:41:07;;;;;;;100.30;75.90;;;;;;;-1.30;69.30;100901.48;111046;1248;23008;-80
2022/01/10 10:43:41;;;;;;;107.50;80.90;;;;;;;-1.32;69.38;100904.77;110943;1249;21976;-80
2022/01/10 10:46:17;;;;;;;106.50;80.70;;;;;;;-1.32;69.47;100911.45;111095;1249;21963;-80
2022/01/10 10:48:59;;;;;;;104.80;78.20;;;;;;;-1.26;69.73;100916.69;111153;1249;23601;-80
2022/01/10 10:51:35;;;;;;;111.60;82.00;;;;;;;-1.22;69.60;100925.47;110741;1255;22921;-80
2022/01/10 10:54:12;;;;;;;113.90;79.50;;;;;;;-1.19;69.64;100928.95;110650;1255;23605;-80
2022/01/10 10:56:43;;;;;;;104.70;81.40;;;;;;;-1.20;69.35;100935.39;110476;1257;21996;-79
2022/01/10 10:59:13;;;;;;;110.80;87.00;;;;;;;-1.26;69.11;100937.76;110353;1260;22098;-81
2022/01/10 11:01:43;;;;;;;133.90;95.90;;;;;;;-1.30;69.26;100946.95;109776;1260;23020;-80
2022/01/10 11:04:13;;;;;;;125.00;92.80;;;;;;;-1.37;69.11;100956.13;110208;1260;22558;-80
2022/01/10 11:06:43;;;;;;;119.20;89.70;;;;;;;-1.48;68.97;100962.21;109262;1266;22045;-80
2022/01/10 11:09:14;;;;;;;111.20;84.40;;;;;;;-1.64;68.62;100964.55;109437;1260;21982;-80
2022/01/10 11:11:46;;;;;;;110.20;82.50;;;;;;;-1.81;68.62;100970.36;109973;1260;22992;-80
2022/01/10 11:14:24;;;;;;;122.30;88.20;;;;;;;-1.95;68.85;100978.08;110035;1260;23755;-80
2022/01/10 11:16:54;;;;;;;107.20;83.50;;;;;;;-2.04;68.96;100985.27;110307;1254;23062;-80
2022/01/10 11:19:27;;;;;;;123.90;91.20;;;;;;;-2.10;69.12;100988.32;110888;1254;21985;-79
2022/01/10 11:22:11;;;;;;;129.90;97.20;;;;;;;-2.16;69.28;100994.30;110980;1254;22067;-80
2022/01/10 11:24:53;;;;;;;;;;;;;;;-2.22;69.42;100995.77;110852;1249;21955;-80
2022/01/10 11:27:39;;;;;;;118.00;80.40;;;;;;;-2.35;69.43;100999.30;111071;1249;21982;-80
2022/01/10 11:30:29;;;;;;;115.00;82.50;;;;;;;-2.40;69.69;101002.60;111310;1249;21984;-80
2022/01/10 11:33:26;;;;;;;110.60;78.40;;;;;;;-2.45;69.93;101006.27;111052;1250;23720;-81
2022/01/10 11:36:02;;;;;;;103.90;77.10;;;;;;;-2.50;69.98;101006.69;111115;1253;21943;-80
2022/01/10 11:39:07;;;;;;;101.20;75.90;;;;;;;-2.57;70.06;101003.23;110424;1260;21989;-80
2022/01/10 11:41:37;;;;;;;109.00;77.00;;;;;;;-2.63;70.34;101002.26;109489;1266;22001;-81
2022/01/10 11:44:11;;;;;;;107.10;74.00;;;;;;;-2.60;70.63;101004.20;109196;1267;23858;-80
2022/01/10 11:46:53;;;;;;;108.50;76.60;;;;;;;-2.58;70.68;101007.55;108989;1270;23738;-80
2022/01/10 11:49:26;;;;;;;112.50;79.70;;;;;;;-2.56;70.83;101009.73;109138;1270;23055;-81
2022/01/10 11:51:56;;;;;;;95.30;67.50;;;;;;;-2.54;70.91;101007.56;109264;1269;22114;-79
2022/01/10 11:54:55;;;;;;;100.20;73.30;;;;;;;-2.55;70.81;101012.27;109322;1270;22117;-80
2022/01/10 11:57:26;;;;;;;109.60;79.60;;;;;;;-2.62;70.73;101023.08;109501;1264;22068;-80
2022/01/10 12:00:09;;;;;;;110.40;79.50;;;;;;;-2.60;71.24;101027.17;109612;1265;22045;-80
2022/01/10 12:02:41;;;;;;;111.50;73.00;;;;;;;-2.52;71.48;101032.48;109639;1266;22015;-79
2022/01/10 12:05:16;;;;;;;106.00;75.10;;;;;;;-2.47;71.36;101033.30;109589;1262;21985;-79
2022/01/10 12:07:46;;;;;;;116.30;83.70;;;;;;;-2.47;71.22;101033.11;110096;1259;21982;-81
2022/01/10 12:10:34;;;;;;;104.60;74.80;;;;;;;-2.47;71.34;101035.18;110633;1258;21983;-80
2022/01/10 12:13:10;;;;;;;107.70;72.70;;;;;;;-2.45;71.40;101036.83;110274;1259;22030;-80
2022/01/10 12:15:40;;;;;;;115.40;81.00;;;;;;;-2.43;71.44;101044.66;109687;1263;22104;-81
2022/01/10 12:18:10;;;;;;;109.50;78.90;;;;;;;-2.37;71.51;101050.13;109231;1265;21973;-80
2022/01/10 12:20:39;;;;;;;107.70;74.80;;;;;;;-2.33;71.54;101058.72;109753;1263;21986;-81
2022/01/10 12:23:11;;;;;;;102.40;75.40;;;;;;;-2.31;71.67;101066.06;109943;1261;22037;-81
2022/01/10 12:25:43;;;;;;;99.50;72.70;;;;;;;-2.25;71.86;101067.51;110125;1260;23613;-80
2022/01/10 12:28:16;;;;;;;105.00;71.20;;;;;;;-2.22;71.83;101072.19;110412;1260;22133;-81
2022/01/10 12:30:47;;;;;;;90.50;64.80;;;;;;;-2.19;71.70;101081.58;110078;1261;22009;-80
2022/01/10 12:33:17;;;;;;;90.80;64.30;;;;;;;-2.18;71.71;101093.76;110161;1255;21972;-81
2022/01/10 12:35:49;;;;;;;86.50;64.80;;;;;;;-2.18;71.68;101095.52;110300;1254;21976;-80
2022/01/10 12:38:24;;;;;;;101.90;69.80;;;;;;;-2.19;71.55;101107.46;111012;1254;21968;-78
2022/01/10 12:40:54;;;;;;;83.90;60.90;;;;;;;-2.20;71.59;101111.30;111114;1254;22072;-81
2022/01/10 12:43:24;;;;;;;92.10;63.90;;;;;;;-2.23;71.56;101114.35;111128;1254;23003;-81
2022/01/10 12:45:56;;;;;;;92.20;61.90;;;;;;;-2.24;71.59;101123.38;111371;1254;22649;-80
2022/01/10 12:48:31;;;;;;;87.90;61.70;;;;;;;-2.25;71.56;101131.00;111338;1254;21983;-79
2022/01/10 12:51:05;;;;;;;91.70;65.10;;;;;;;-2.28;71.54;101136.68;110901;1255;21999;-80
2022/01/10 12:53:54;;;;;;;;;;;;;;;-2.28;71.84;101142.67;111297;1252;21977;-81
2022/01/10 12:56:25;;;;;;;87.20;60.50;;;;;;;-2.29;71.97;101144.65;111487;1249;21975;-80
2022/01/10 12:58:55;;;;;;;82.40;57.60;;;;;;;-2.28;72.05;101146.52;111487;1249;21969;-80
2022/01/10 13:01:25;;;;;;;88.00;60.40;;;;;;;-2.28;71.95;101157.70;111441;1249;21976;-80
2022/01/10 13:04:01;;;;;;;85.00;60.10;;;;;;;-2.29;71.89;101159.14;110792;1257;22744;-80
2022/01/10 13:06:39;;;;;;;83.90;59.00;;;;;;;-2.33;71.84;101166.55;111000;1257;22055;-80
2022/01/10 13:09:11;;;;;;;81.40;60.60;;;;;;;-2.40;71.82;101173.54;111051;1257;21980;-79
2022/01/10 13:12:29;;;;;;;82.00;59.40;;;;;;;-2.43;71.90;101175.08;109845;1261;22020;-78
2022/01/10 13:14:36;;;;;;;78.30;55.80;;;;;;;-2.44;72.01;101178.05;110062;1260;22478;-79
2022/01/10 13:17:08;;;;;;;82.90;58.80;;;;;;;-2.49;72.11;101179.80;109820;1261;22105;-79
2022/01/10 13:19:42;;;;;;;81.30;59.10;;;;;;;-2.50;72.28;101183.64;110098;1261;22808;-79
2022/01/10 13:22:16;;;;;;;87.30;60.70;;;;;;;-2.49;72.47;101187.20;110061;1256;22033;-80
2022/01/10 13:24:55;;;;;;;84.50;60.00;;;;;;;-2.43;72.63;101193.86;110894;1255;23797;-80
2022/01/10 13:27:34;;;;;;;86.60;60.30;;;;;;;-2.38;72.74;101198.85;110788;1254;24349;-81
2022/01/10 13:30:15;;;;;;;88.00;59.90;;;;;;;-2.33;72.77;101203.98;110807;1252;22023;-82
2022/01/10 13:32:48;;;;;;;85.30;61.60;;;;;;;-2.27;72.84;101210.31;111220;1252;23142;-81
2022/01/10 13:35:19;;;;;;;83.40;58.30;;;;;;;-2.26;72.70;101213.37;111007;1252;21987;-79
2022/01/10 13:37:58;;;;;;;93.80;64.80;;;;;;;-2.26;72.69;101212.69;110831;1252;23695;-82
2022/01/10 13:40:41;;;;;;;88.50;63.90;;;;;;;-2.22;72.85;101217.68;110937;1252;22770;-81
2022/01/10 13:43:33;;;;;;;89.30;63.10;;;;;;;-2.18;72.88;101220.25;110892;1252;21985;-81
2022/01/10 13:46:07;;;;;;;88.80;61.00;;;;;;;-2.15;72.86;101223.75;110815;1254;21968;-81
2022/01/10 13:48:40;;;;;;;94.30;63.50;;;;;;;-2.13;72.82;101230.91;111021;1254;21974;-80
2022/01/10 13:51:23;;;;;;;92.80;64.00;;;;;;;-2.11;72.79;101231.20;110788;1254;21965;-80
2022/01/10 13:53:55;;;;;;;90.90;62.40;;;;;;;-2.10;72.72;101234.95;110896;1252;22067;-80
2022/01/10 13:56:25;;;;;;;78.50;55.70;;;;;;;-2.09;72.78;101239.89;111113;1252;22052;-80
2022/01/10 13:59:01;;;;;;;85.40;60.90;;;;;;;-2.10;72.57;101242.04;111284;1252;22068;-80
2022/01/10 14:01:44;;;;;;;90.80;63.90;;;;;;;-2.10;72.65;101249.79;111084;1252;23711;-81
2022/01/10 14:04:30;;;;;;;83.50;59.60;;;;;;;-2.08;72.80;101249.69;110979;1252;21973;-82
2022/01/10 14:07:05;;;;;;;78.80;58.30;;;;;;;-2.08;72.72;101250.39;110575;1256;23753;-80
2022/01/10 14:09:35;;;;;;;81.20;60.70;;;;;;;-2.10;72.74;101262.56;110702;1256;21941;-81
2022/01/10 14:12:06;;;;;;;84.90;59.00;;;;;;;-2.13;72.69;101262.34;110693;1256;21993;-81
2022/01/10 14:14:38;;;;;;;86.90;62.20;;;;;;;-2.14;72.78;101262.70;110719;1256;24173;-81
2022/01/10 14:17:07;;;;;;;84.10;61.10;;;;;;;-2.11;73.02;101266.05;110197;1261;21983;-81
2022/01/10 14:19:37;;;;;;;86.90;61.50;;;;;;;-2.07;72.89;101274.66;110422;1259;22040;-80
2022/01/10 14:22:06;;;;;;;86.10;61.60;;;;;;;-2.06;72.79;101281.54;110489;1259;22046;-81
2022/01/10 14:24:39;;;;;;;81.20;59.00;;;;;;;-2.06;72.90;101289.33;109780;1260;22005;-81
2022/01/10 14:27:11;;;;;;;81.10;60.40;;;;;;;-2.07;72.84;101294.70;109624;1264;21993;-81
2022/01/10 14:29:41;;;;;;;85.50;59.90;;;;;;;-2.07;72.91;101297.47;109629;1264;22704;-81
2022/01/10 14:32:11;;;;;;;77.20;57.60;;;;;;;-2.05;72.99;101306.55;109656;1267;22243;-81
2022/01/10 14:34:40;;;;;;;79.70;56.70;;;;;;;-2.05;72.98;101310.66;109904;1260;22696;-81
2022/01/10 14:37:10;;;;;;;73.40;53.90;;;;;;;-2.04;73.09;101311.85;109941;1263;22195;-79
2022/01/10 14:39:39;;;;;;;79.50;55.70;;;;;;;-2.04;73.05;101319.80;110055;1263;22033;-80
2022/01/10 14:42:11;;;;;;;78.20;56.50;;;;;;;-2.03;73.08;101329.77;110208;1257;21993;-78
2022/01/10 14:44:43;;;;;;;79.10;58.00;;;;;;;-2.02;73.05;101335.76;108908;1256;2023986;-80
2022/01/10 14:47:13;;;;;;;78.30;59.10;;;;;;;-2.00;73.17;101342.06;110643;1253;23763;-80
2022/01/10 14:49:42;;;;;;;84.90;64.70;;;;;;;-1.98;73.18;101343.02;110878;1253;22051;-79
2022/01/10 14:52:14;;;;;;;81.00;61.40;;;;;;;-1.95;73.19;101349.45;110049;1257;22745;-81
2022/01/10 14:54:44;;;;;;;;;;;;;;;-1.92;73.32;101351.20;110372;1256;23154;-81
2022/01/10 14:57:13;;;;;;;75.40;55.40;;;;;;;-1.96;73.28;101357.41;110426;1259;23746;-80
2022/01/10 14:59:43;;;;;;;83.30;62.00;;;;;;;-1.97;73.30;101358.16;110251;1256;22011;-79
2022/01/10 15:02:12;;;;;;;76.60;56.30;;;;;;;-1.96;73.24;101366.73;110593;1256;22026;-81
2022/01/10 15:04:42;;;;;;;80.50;57.40;;;;;;;-1.94;73.30;101373.89;110488;1259;21979;-81
2022/01/10 15:07:12;;;;;;;76.70;55.60;;;;;;;-1.92;73.25;101380.92;110523;1259;21991;-80
2022/01/10 15:09:42;;;;;;;77.90;58.90;;;;;;;-1.89;73.28;101384.80;109421;1261;23653;-80
2022/01/10 15:12:12;;;;;;;70.20;51.10;;;;;;;-1.85;73.29;101386.69;109612;1261;21967;-78
2022/01/10 15:14:41;;;;;;;71.60;54.60;;;;;;;-1.86;73.10;101383.29;109782;1261;21999;-81
2022/01/10 15:17:11;;;;;;;69.60;52.50;;;;;;;-1.89;73.11;101380.60;109924;1261;22012;-80
2022/01/10 15:19:40;;;;;;;72.30;56.30;;;;;;;-1.91;73.08;101381.90;109824;1261;22049;-81
2022/01/10 15:22:19;;;;;;;74.90;60.80;;;;;;;-1.90;73.32;101384.98;109895;1261;22185;-80
2022/01/10 15:24:51;;;;;;;84.30;64.90;;;;;;;-1.86;73.35;101389.85;110296;1262;21978;-80
2022/01/10 15:27:20;;;;;;;81.00;61.60;;;;;;;-1.83;73.42;101389.55;110195;1256;22011;-80
2022/01/10 15:29:51;;;;;;;83.70;62.90;;;;;;;-1.79;73.45;101397.33;110915;1253;21981;-80
2022/01/10 15:32:23;;;;;;;82.50;62.70;;;;;;;-1.77;73.41;101399.30;110324;1259;21939;-80
2022/01/10 15:34:52;;;;;;;76.50;60.30;;;;;;;-1.71;73.48;101414.75;109931;1259;22047;-80
2022/01/10 15:37:22;;;;;;;85.10;64.20;;;;;;;-1.66;73.50;101419.41;110103;1259;23083;-81
2022/01/10 15:39:52;;;;;;;80.50;63.40;;;;;;;-1.63;73.36;101422.04;110141;1259;21992;-80
2022/01/10 15:42:30;;;;;;;79.70;61.80;;;;;;;-1.61;73.40;101427.83;109480;1265;23079;-80
2022/01/10 15:45:05;;;;;;;79.00;58.90;;;;;;;-1.57;73.47;101432.66;109603;1263;23084;-79
2022/01/10 15:47:36;;;;;;;79.50;60.40;;;;;;;-1.55;73.35;101439.69;109266;1264;22157;-80
2022/01/10 15:50:10;;;;;;;84.60;62.00;;;;;;;-1.52;73.40;101449.41;109568;1261;21989;-79
2022/01/10 15:52:44;;;;;;;80.80;62.10;;;;;;;-1.50;73.27;101454.84;109895;1259;22009;-81
2022/01/10 15:55:15;;;;;;;102.40;68.50;;;;;;;-1.48;73.31;101460.76;110027;1259;23039;-81
2022/01/10 15:57:45;;;;;;;114.00;69.00;;;;;;;-1.43;73.39;101464.73;110119;1259;21973;-81
2022/01/10 16:00:16;;;;;;;100.00;64.70;;;;;;;-1.39;73.30;101472.19;110139;1260;23679;-80
2022/01/10 16:02:45;;;;;;;97.20;71.00;;;;;;;-1.35;73.31;101475.30;109820;1261;22454;-80
2022/01/10 16:05:17;;;;;;;97.50;72.30;;;;;;;-1.32;73.13;101477.59;110445;1259;22012;-80
2022/01/10 16:07:48;;;;;;;100.00;73.00;;;;;;;-1.30;73.13;101478.04;110412;1253;23615;-80
2022/01/10 16:10:21;;;;;;;108.00;73.20;;;;;;;-1.29;73.07;101482.98;111060;1253;22979;-80
2022/01/10 16:13:11;;;;;;;100.30;70.10;;;;;;;-1.27;72.97;101486.56;111208;1253;22827;-80
2022/01/10 16:15:44;;;;;;;109.30;71.50;;;;;;;-1.27;73.01;101487.55;110321;1256;21987;-79
2022/01/10 16:18:13;;;;;;;103.10;70.70;;;;;;;-1.25;72.96;101491.66;110627;1256;21978;-80
2022/01/10 16:20:48;;;;;;;100.60;69.60;;;;;;;-1.24;72.98;101499.70;110512;1256;22512;-80
2022/01/10 16:23:22;;;;;;;111.50;76.20;;;;;;;-1.22;72.93;101503.62;110164;1256;21975;-80
2022/01/10 16:25:53;;;;;;;126.70;84.10;;;;;;;-1.21;72.97;101504.58;110612;1256;24474;-80
2022/01/10 16:28:29;;;;;;;116.20;82.00;;;;;;;-1.19;72.86;101507.45;109627;1262;23112;-79
2022/01/10 16:30:59;;;;;;;114.70;79.20;;;;;;;-1.17;72.81;101512.77;109257;1264;21979;-80
2022/01/10 16:33:29;;;;;;;114.00;79.20;;;;;;;-1.16;72.84;101514.09;109756;1259;22438;-80
2022/01/10 16:36:00;;;;;;;124.00;86.80;;;;;;;-1.14;72.80;101517.98;110548;1259;23471;-83
2022/01/10 16:38:29;;;;;;;133.60;88.10;;;;;;;-1.13;72.74;101521.73;109632;1264;21991;-79
2022/01/10 16:40:59;;;;;;;119.10;81.60;;;;;;;-1.12;72.70;101532.43;109510;1267;22163;-81
2022/01/10 16:43:37;;;;;;;108.10;75.20;;;;;;;-1.13;72.76;101537.80;108811;1276;21999;-82
2022/01/10 16:46:14;;;;;;;108.50;77.60;;;;;;;-1.11;72.86;101543.10;108972;1270;22130;-80
2022/01/10 16:48:54;;;;;;;114.70;79.60;;;;;;;-1.10;72.81;101549.77;109035;1270;21998;-80
2022/01/10 16:51:33;;;;;;;99.40;72.40;;;;;;;-1.08;72.80;101555.58;109093;1270;23087;-79
2022/01/10 16:54:08;;;;;;;98.20;69.10;;;;;;;-1.06;72.79;101556.38;108916;1270;22067;-79
2022/01/10 16:56:37;;;;;;;96.20;69.40;;;;;;;-1.05;72.71;101563.05;109184;1267;23009;-80
2022/01/10 16:59:11;;;;;;;113.20;78.80;;;;;;;-1.03;72.71;101566.96;109852;1260;21987;-80
2022/01/10 17:01:40;;;;;;;124.50;85.40;;;;;;;-1.00;72.72;101569.42;110635;1259;23702;-81
2022/01/10 17:04:11;;;;;;;110.30;78.80;;;;;;;-0.97;72.85;101572.95;110382;1259;21983;-81
2022/01/10 17:06:40;;;;;;;108.70;78.50;;;;;;;-0.96;72.69;101579.83;110455;1262;22794;-81
2022/01/10 17:09:13;;;;;;;100.60;74.50;;;;;;;-0.97;72.69;101580.17;110957;1253;21964;-81
2022/01/10 17:11:43;;;;;;;92.30;67.30;;;;;;;-0.94;72.78;101582.14;110994;1253;22363;-79
2022/01/10 17:14:12;;;;;;;93.10;64.80;;;;;;;-0.93;72.75;101589.37;110868;1253;23791;-80
2022/01/10 17:16:42;;;;;;;88.70;64.30;;;;;;;-0.94;72.71;101594.24;110862;1256;21983;-81
2022/01/10 17:19:11;;;;;;;87.00;62.50;;;;;;;-0.92;72.72;101597.66;110671;1259;22624;-80
2022/01/10 17:21:45;;;;;;;89.50;64.60;;;;;;;-0.92;72.64;101598.68;109696;1264;22156;-82
2022/01/10 17:24:16;;;;;;;87.40;61.70;;;;;;;-0.92;72.68;101598.85;109888;1264;22367;-81
2022/01/10 17:26:49;;;;;;;87.30;61.70;;;;;;;-0.92;72.75;101604.73;109914;1265;22014;-81
2022/01/10 17:29:21;;;;;;;82.70;58.70;;;;;;;-0.91;72.68;101606.60;109821;1264;22480;-81
2022/01/10 17:31:51;;;;;;;76.50;56.20;;;;;;;-0.90;72.70;101612.97;109028;1273;23165;-82
2022/01/10 17:34:26;;;;;;;70.20;53.70;;;;;;;-0.88;72.73;101617.02;109335;1270;22026;-82
2022/01/10 17:36:56;;;;;;;68.40;52.20;;;;;;;-0.86;72.73;101624.54;109056;1273;22274;-82
2022/01/10 17:39:28;;;;;;;70.10;52.60;;;;;;;-0.85;72.65;101628.30;109204;1267;21964;-83
2022/01/10 17:41:58;;;;;;;66.50;52.10;;;;;;;-0.86;72.57;101629.39;109535;1267;22052;-82
2022/01/10 17:44:28;;;;;;;73.10;53.40;;;;;;;-0.87;72.57;101638.06;109646;1267;22032;-83